Vestavia, Alabama
Current Conditions -  °F | °C
As of 1:04 PM on Monday 22 Dec 2014 (Local Time) from KBHM Reporting Station
Overcast Overcast  
Wind Chill: 54°   Ceiling: 1200
Heat Index: 54°   Visibility: 10mi
Dew Point: 51°   Wind: 6mph
Humidity: 90%   Direction: 140°SE
Pressure: 29.83"   Gusts: NA
Location:  33.465°N, 86.8113°W
Report Text: KBHM 221904Z 14005KT 10SM BKN012 OVC045 12/11 A2983 RMK AO2 T01220106
Loading
Personal Weather Stations






























Interactive Weather Map New forecast layout! Learn more

10-Day Weather Forecast

Advertisements
Track Severe Weather on mobile